sensor_id;sensor_type;location;lat;lon;timestamp;temperature;humidity
69009;SHT31;56065;52.472;13.380;2024-03-23T00:55:29;11.02;88.32
69009;SHT31;56065;52.472;13.380;2024-03-23T00:57:54;10.99;88.42
69009;SHT31;56065;52.472;13.380;2024-03-23T01:00:19;10.98;87.49
69009;SHT31;56065;52.472;13.380;2024-03-23T01:02:45;10.98;87.43
69009;SHT31;56065;52.472;13.380;2024-03-23T01:05:11;11.03;88.01
69009;SHT31;56065;52.472;13.380;2024-03-23T01:07:36;11.01;88.02
69009;SHT31;56065;52.472;13.380;2024-03-23T01:10:02;10.96;88.09
69009;SHT31;56065;52.472;13.380;2024-03-23T01:12:27;10.95;87.63
69009;SHT31;56065;52.472;13.380;2024-03-23T01:14:52;10.98;87.83
69009;SHT31;56065;52.472;13.380;2024-03-23T01:17:17;11.02;88.25
69009;SHT31;56065;52.472;13.380;2024-03-23T01:19:43;10.98;87.62
69009;SHT31;56065;52.472;13.380;2024-03-23T01:22:08;10.99;87.55
69009;SHT31;56065;52.472;13.380;2024-03-23T01:24:35;10.96;87.71
69009;SHT31;56065;52.472;13.380;2024-03-23T01:27:00;10.98;87.93
69009;SHT31;56065;52.472;13.380;2024-03-23T01:29:26;10.96;88.22
69009;SHT31;56065;52.472;13.380;2024-03-23T01:31:51;10.99;88.43
69009;SHT31;56065;52.472;13.380;2024-03-23T01:34:16;10.95;88.20
69009;SHT31;56065;52.472;13.380;2024-03-23T01:36:42;10.99;88.14
69009;SHT31;56065;52.472;13.380;2024-03-23T01:39:07;10.99;88.19
69009;SHT31;56065;52.472;13.380;2024-03-23T01:41:35;10.98;88.13
69009;SHT31;56065;52.472;13.380;2024-03-23T01:44:05;10.92;88.39
69009;SHT31;56065;52.472;13.380;2024-03-23T01:46:30;10.94;88.59
69009;SHT31;56065;52.472;13.380;2024-03-23T01:48:56;10.91;89.05
69009;SHT31;56065;52.472;13.380;2024-03-23T01:51:22;10.91;89.04
69009;SHT31;56065;52.472;13.380;2024-03-23T01:53:48;10.89;88.75
69009;SHT31;56065;52.472;13.380;2024-03-23T01:56:14;10.91;88.60
69009;SHT31;56065;52.472;13.380;2024-03-23T01:58:39;10.95;88.88
69009;SHT31;56065;52.472;13.380;2024-03-23T02:01:04;10.96;88.54
69009;SHT31;56065;52.472;13.380;2024-03-23T02:03:30;10.96;88.79
69009;SHT31;56065;52.472;13.380;2024-03-23T02:05:55;10.92;88.30
69009;SHT31;56065;52.472;13.380;2024-03-23T02:08:22;10.91;88.50
69009;SHT31;56065;52.472;13.380;2024-03-23T02:10:51;10.96;88.40
69009;SHT31;56065;52.472;13.380;2024-03-23T02:13:17;10.95;88.52
69009;SHT31;56065;52.472;13.380;2024-03-23T02:15:43;10.92;88.32
69009;SHT31;56065;52.472;13.380;2024-03-23T02:18:10;10.92;88.31
69009;SHT31;56065;52.472;13.380;2024-03-23T02:20:36;10.92;88.55
69009;SHT31;56065;52.472;13.380;2024-03-23T02:23:01;10.88;88.30
69009;SHT31;56065;52.472;13.380;2024-03-23T02:25:27;10.84;88.35
69009;SHT31;56065;52.472;13.380;2024-03-23T02:27:52;10.81;88.42
69009;SHT31;56065;52.472;13.380;2024-03-23T02:30:19;10.81;88.31
69009;SHT31;56065;52.472;13.380;2024-03-23T02:32:44;10.82;88.67
69009;SHT31;56065;52.472;13.380;2024-03-23T02:35:10;10.84;88.68
69009;SHT31;56065;52.472;13.380;2024-03-23T02:37:35;10.86;88.44
69009;SHT31;56065;52.472;13.380;2024-03-23T02:40:00;10.86;88.56
69009;SHT31;56065;52.472;13.380;2024-03-23T02:42:25;10.85;88.61
69009;SHT31;56065;52.472;13.380;2024-03-23T02:44:51;10.89;88.46
69009;SHT31;56065;52.472;13.380;2024-03-23T02:47:16;10.86;88.58
69009;SHT31;56065;52.472;13.380;2024-03-23T02:49:41;10.85;88.20
69009;SHT31;56065;52.472;13.380;2024-03-23T02:52:07;10.81;87.91
69009;SHT31;56065;52.472;13.380;2024-03-23T02:54:32;10.72;88.29
69009;SHT31;56065;52.472;13.380;2024-03-23T02:56:57;10.69;88.34
69009;SHT31;56065;52.472;13.380;2024-03-23T02:59:22;10.67;88.45
69009;SHT31;56065;52.472;13.380;2024-03-23T03:01:48;10.67;88.84
69009;SHT31;56065;52.472;13.380;2024-03-23T03:04:13;10.67;88.85
69009;SHT31;56065;52.472;13.380;2024-03-23T03:06:38;10.67;88.80
69009;SHT31;56065;52.472;13.380;2024-03-23T03:09:03;10.65;88.91
69009;SHT31;56065;52.472;13.380;2024-03-23T03:11:29;10.67;88.92
69009;SHT31;56065;52.472;13.380;2024-03-23T03:13:55;10.68;88.99
69009;SHT31;56065;52.472;13.380;2024-03-23T03:16:20;10.68;88.92
69009;SHT31;56065;52.472;13.380;2024-03-23T03:18:45;10.74;89.01
69009;SHT31;56065;52.472;13.380;2024-03-23T03:21:12;10.75;89.14
69009;SHT31;56065;52.472;13.380;2024-03-23T03:23:37;10.72;88.43
69009;SHT31;56065;52.472;13.380;2024-03-23T03:26:04;10.69;88.73
69009;SHT31;56065;52.472;13.380;2024-03-23T03:28:30;10.67;88.62
69009;SHT31;56065;52.472;13.380;2024-03-23T03:30:56;10.64;89.00
69009;SHT31;56065;52.472;13.380;2024-03-23T03:33:22;10.64;89.15
69009;SHT31;56065;52.472;13.380;2024-03-23T03:35:47;10.63;88.82
69009;SHT31;56065;52.472;13.380;2024-03-23T03:38:12;10.64;88.74
69009;SHT31;56065;52.472;13.380;2024-03-23T03:40:38;10.61;88.22
69009;SHT31;56065;52.472;13.380;2024-03-23T03:43:03;10.58;88.62
69009;SHT31;56065;52.472;13.380;2024-03-23T03:45:29;10.60;88.73
69009;SHT31;56065;52.472;13.380;2024-03-23T03:47:54;10.50;88.24
69009;SHT31;56065;52.472;13.380;2024-03-23T03:50:21;10.54;88.31
69009;SHT31;56065;52.472;13.380;2024-03-23T03:52:46;10.50;88.80
69009;SHT31;56065;52.472;13.380;2024-03-23T03:55:16;10.54;88.49
69009;SHT31;56065;52.472;13.380;2024-03-23T03:57:41;10.51;88.16
69009;SHT31;56065;52.472;13.380;2024-03-23T04:00:07;10.45;88.48
69009;SHT31;56065;52.472;13.380;2024-03-23T04:02:36;10.43;88.23
69009;SHT31;56065;52.472;13.380;2024-03-23T04:05:02;10.45;88.31
69009;SHT31;56065;52.472;13.380;2024-03-23T04:07:28;10.43;88.26
69009;SHT31;56065;52.472;13.380;2024-03-23T04:09:53;10.37;88.04
69009;SHT31;56065;52.472;13.380;2024-03-23T04:12:19;10.37;88.01
69009;SHT31;56065;52.472;13.380;2024-03-23T04:14:45;10.34;88.21
69009;SHT31;56065;52.472;13.380;2024-03-23T04:17:10;10.34;88.33
69009;SHT31;56065;52.472;13.380;2024-03-23T04:19:35;10.34;88.56
69009;SHT31;56065;52.472;13.380;2024-03-23T04:22:01;10.37;88.74
69009;SHT31;56065;52.472;13.380;2024-03-23T04:24:26;10.36;88.28
69009;SHT31;56065;52.472;13.380;2024-03-23T04:26:52;10.34;88.55
69009;SHT31;56065;52.472;13.380;2024-03-23T04:29:17;10.33;88.44
69009;SHT31;56065;52.472;13.380;2024-03-23T04:31:42;10.24;88.64
69009;SHT31;56065;52.472;13.380;2024-03-23T04:34:08;10.20;87.90
69009;SHT31;56065;52.472;13.380;2024-03-23T04:36:33;10.12;87.56
69009;SHT31;56065;52.472;13.380;2024-03-23T04:38:59;10.02;87.87
69009;SHT31;56065;52.472;13.380;2024-03-23T04:41:25;9.96;87.89
69009;SHT31;56065;52.472;13.380;2024-03-23T04:43:51;9.94;88.34
69009;SHT31;56065;52.472;13.380;2024-03-23T04:46:16;9.94;88.49
69009;SHT31;56065;52.472;13.380;2024-03-23T04:48:41;10.00;88.47
69009;SHT31;56065;52.472;13.380;2024-03-23T04:51:09;10.02;88.38
69009;SHT31;56065;52.472;13.380;2024-03-23T04:53:34;10.00;88.31
69009;SHT31;56065;52.472;13.380;2024-03-23T04:56:00;9.94;88.13
69009;SHT31;56065;52.472;13.380;2024-03-23T04:58:25;9.93;88.36
69009;SHT31;56065;52.472;13.380;2024-03-23T05:00:54;9.86;88.19
69009;SHT31;56065;52.472;13.380;2024-03-23T05:03:20;9.83;88.08
69009;SHT31;56065;52.472;13.380;2024-03-23T05:05:46;9.83;88.34
69009;SHT31;56065;52.472;13.380;2024-03-23T05:08:11;9.86;88.33
69009;SHT31;56065;52.472;13.380;2024-03-23T05:10:37;9.86;87.94
69009;SHT31;56065;52.472;13.380;2024-03-23T05:13:03;9.85;88.19
69009;SHT31;56065;52.472;13.380;2024-03-23T05:15:28;9.83;88.93
69009;SHT31;56065;52.472;13.380;2024-03-23T05:17:55;9.89;89.20
69009;SHT31;56065;52.472;13.380;2024-03-23T05:20:20;9.93;89.03
69009;SHT31;56065;52.472;13.380;2024-03-23T05:22:46;9.93;89.11
69009;SHT31;56065;52.472;13.380;2024-03-23T05:25:11;9.94;88.86
69009;SHT31;56065;52.472;13.380;2024-03-23T05:27:37;9.93;88.48
69009;SHT31;56065;52.472;13.380;2024-03-23T05:30:03;9.97;88.53
69009;SHT31;56065;52.472;13.380;2024-03-23T05:32:29;9.93;88.64
69009;SHT31;56065;52.472;13.380;2024-03-23T05:34:54;9.93;88.13
69009;SHT31;56065;52.472;13.380;2024-03-23T05:37:23;9.93;88.36
69009;SHT31;56065;52.472;13.380;2024-03-23T05:39:49;9.96;88.38
69009;SHT31;56065;52.472;13.380;2024-03-23T05:42:17;9.94;88.76
69009;SHT31;56065;52.472;13.380;2024-03-23T05:44:44;9.96;88.59
69009;SHT31;56065;52.472;13.380;2024-03-23T05:47:10;9.97;88.37
69009;SHT31;56065;52.472;13.380;2024-03-23T05:49:35;9.96;88.63
69009;SHT31;56065;52.472;13.380;2024-03-23T05:52:01;10.03;88.81
69009;SHT31;56065;52.472;13.380;2024-03-23T05:54:28;10.04;88.57
69009;SHT31;56065;52.472;13.380;2024-03-23T05:56:55;10.07;88.44
69009;SHT31;56065;52.472;13.380;2024-03-23T05:59:20;10.09;88.69
69009;SHT31;56065;52.472;13.380;2024-03-23T06:01:46;10.09;88.55
69009;SHT31;56065;52.472;13.380;2024-03-23T06:04:12;10.07;88.66
69009;SHT31;56065;52.472;13.380;2024-03-23T06:06:39;10.09;88.47
69009;SHT31;56065;52.472;13.380;2024-03-23T06:09:04;10.10;88.97
69009;SHT31;56065;52.472;13.380;2024-03-23T06:11:29;10.13;88.71
69009;SHT31;56065;52.472;13.380;2024-03-23T06:13:55;10.20;88.58
69009;SHT31;56065;52.472;13.380;2024-03-23T06:16:21;10.21;88.22
69009;SHT31;56065;52.472;13.380;2024-03-23T06:18:49;10.23;88.05
69009;SHT31;56065;52.472;13.380;2024-03-23T06:21:15;10.24;88.25
69009;SHT31;56065;52.472;13.380;2024-03-23T06:23:41;10.29;87.99
69009;SHT31;56065;52.472;13.380;2024-03-23T06:26:06;10.30;88.20
69009;SHT31;56065;52.472;13.380;2024-03-23T06:28:32;10.33;88.31
69009;SHT31;56065;52.472;13.380;2024-03-23T06:30:57;10.38;88.32
69009;SHT31;56065;52.472;13.380;2024-03-23T06:33:22;10.38;87.81
69009;SHT31;56065;52.472;13.380;2024-03-23T06:35:52;10.29;87.09
69009;SHT31;56065;52.472;13.380;2024-03-23T06:38:18;10.21;87.26
69009;SHT31;56065;52.472;13.380;2024-03-23T06:40:43;10.24;87.25
69009;SHT31;56065;52.472;13.380;2024-03-23T06:43:13;10.24;87.08
69009;SHT31;56065;52.472;13.380;2024-03-23T06:45:38;10.25;87.00
69009;SHT31;56065;52.472;13.380;2024-03-23T06:48:04;10.27;87.16
69009;SHT31;56065;52.472;13.380;2024-03-23T06:50:29;10.24;86.53
69009;SHT31;56065;52.472;13.380;2024-03-23T06:52:54;10.20;86.31
69009;SHT31;56065;52.472;13.380;2024-03-23T06:55:20;10.16;86.74
69009;SHT31;56065;52.472;13.380;2024-03-23T06:57:45;10.16;86.57
69009;SHT31;56065;52.472;13.380;2024-03-23T07:00:12;10.24;87.39
69009;SHT31;56065;52.472;13.380;2024-03-23T07:02:38;10.31;86.76
69009;SHT31;56065;52.472;13.380;2024-03-23T07:05:04;10.34;86.54
69009;SHT31;56065;52.472;13.380;2024-03-23T07:07:29;10.31;86.37
69009;SHT31;56065;52.472;13.380;2024-03-23T07:09:55;10.29;86.34
69009;SHT31;56065;52.472;13.380;2024-03-23T07:12:20;10.33;86.47
69009;SHT31;56065;52.472;13.380;2024-03-23T07:14:46;10.31;86.22
69009;SHT31;56065;52.472;13.380;2024-03-23T07:17:11;10.31;86.39
69009;SHT31;56065;52.472;13.380;2024-03-23T07:19:36;10.30;86.29
69009;SHT31;56065;52.472;13.380;2024-03-23T07:22:01;10.30;86.03
69009;SHT31;56065;52.472;13.380;2024-03-23T07:24:27;10.29;85.66
69009;SHT31;56065;52.472;13.380;2024-03-23T07:26:52;10.21;86.01
69009;SHT31;56065;52.472;13.380;2024-03-23T07:29:19;10.21;86.22
69009;SHT31;56065;52.472;13.380;2024-03-23T07:31:44;10.34;86.12
69009;SHT31;56065;52.472;13.380;2024-03-23T07:34:10;10.48;86.14
69009;SHT31;56065;52.472;13.380;2024-03-23T07:36:35;10.51;85.70
69009;SHT31;56065;52.472;13.380;2024-03-23T07:39:00;10.54;86.22
69009;SHT31;56065;52.472;13.380;2024-03-23T07:41:25;10.65;86.03
69009;SHT31;56065;52.472;13.380;2024-03-23T07:43:53;10.84;85.99
69009;SHT31;56065;52.472;13.380;2024-03-23T07:46:18;10.98;85.48
69009;SHT31;56065;52.472;13.380;2024-03-23T07:48:45;11.05;85.10
69009;SHT31;56065;52.472;13.380;2024-03-23T07:51:20;11.01;84.91
69009;SHT31;56065;52.472;13.380;2024-03-23T07:53:45;10.95;84.99
69009;SHT31;56065;52.472;13.380;2024-03-23T07:56:17;10.99;85.26
69009;SHT31;56065;52.472;13.380;2024-03-23T07:58:44;10.91;84.35
69009;SHT31;56065;52.472;13.380;2024-03-23T08:01:12;10.84;84.90
69009;SHT31;56065;52.472;13.380;2024-03-23T08:03:39;10.85;84.56
69009;SHT31;56065;52.472;13.380;2024-03-23T08:06:16;10.75;84.77
69009;SHT31;56065;52.472;13.380;2024-03-23T08:08:43;10.68;84.63
69009;SHT31;56065;52.472;13.380;2024-03-23T08:11:09;10.65;84.84
69009;SHT31;56065;52.472;13.380;2024-03-23T08:13:35;10.64;84.68
69009;SHT31;56065;52.472;13.380;2024-03-23T08:16:01;10.61;84.89
69009;SHT31;56065;52.472;13.380;2024-03-23T08:18:27;10.61;84.60
69009;SHT31;56065;52.472;13.380;2024-03-23T08:21:03;10.57;85.29
69009;SHT31;56065;52.472;13.380;2024-03-23T08:23:30;10.54;85.23
69009;SHT31;56065;52.472;13.380;2024-03-23T08:26:03;10.40;85.64
69009;SHT31;56065;52.472;13.380;2024-03-23T08:28:28;10.36;85.39
69009;SHT31;56065;52.472;13.380;2024-03-23T08:30:54;10.27;84.46
69009;SHT31;56065;52.472;13.380;2024-03-23T08:33:20;10.07;84.56
69009;SHT31;56065;52.472;13.380;2024-03-23T08:36:02;9.96;84.56
69009;SHT31;56065;52.472;13.380;2024-03-23T08:38:28;9.82;85.33
69009;SHT31;56065;52.472;13.380;2024-03-23T08:43:25;9.58;85.15
69009;SHT31;56065;52.472;13.380;2024-03-23T08:45:51;9.55;85.51
69009;SHT31;56065;52.472;13.380;2024-03-23T08:48:17;9.45;85.73
69009;SHT31;56065;52.472;13.380;2024-03-23T08:50:43;9.42;86.01
69009;SHT31;56065;52.472;13.380;2024-03-23T08:53:08;9.48;86.02
69009;SHT31;56065;52.472;13.380;2024-03-23T08:55:34;9.42;85.99
69009;SHT31;56065;52.472;13.380;2024-03-23T08:57:59;9.36;85.45
69009;SHT31;56065;52.472;13.380;2024-03-23T09:00:25;9.24;85.54
69009;SHT31;56065;52.472;13.380;2024-03-23T09:02:50;9.18;85.36
69009;SHT31;56065;52.472;13.380;2024-03-23T09:05:16;9.14;85.48
69009;SHT31;56065;52.472;13.380;2024-03-23T09:07:41;9.08;85.98
69009;SHT31;56065;52.472;13.380;2024-03-23T09:10:07;9.07;85.92
69009;SHT31;56065;52.472;13.380;2024-03-23T09:12:32;9.11;85.67
69009;SHT31;56065;52.472;13.380;2024-03-23T09:14:58;9.08;85.15
69009;SHT31;56065;52.472;13.380;2024-03-23T09:17:23;9.08;85.17
69009;SHT31;56065;52.472;13.380;2024-03-23T09:19:48;9.05;84.95
69009;SHT31;56065;52.472;13.380;2024-03-23T09:22:13;8.99;84.91
69009;SHT31;56065;52.472;13.380;2024-03-23T09:24:39;8.94;84.69
69009;SHT31;56065;52.472;13.380;2024-03-23T09:27:05;8.91;84.66
69009;SHT31;56065;52.472;13.380;2024-03-23T09:29:30;8.81;84.73
69009;SHT31;56065;52.472;13.380;2024-03-23T09:31:56;8.79;84.72
69009;SHT31;56065;52.472;13.380;2024-03-23T09:34:21;8.79;84.46
69009;SHT31;56065;52.472;13.380;2024-03-23T09:36:47;8.70;84.56
69009;SHT31;56065;52.472;13.380;2024-03-23T09:39:15;8.69;84.51
69009;SHT31;56065;52.472;13.380;2024-03-23T09:41:40;8.67;84.95
69009;SHT31;56065;52.472;13.380;2024-03-23T09:44:06;8.56;84.75
69009;SHT31;56065;52.472;13.380;2024-03-23T09:46:32;8.57;85.10
69009;SHT31;56065;52.472;13.380;2024-03-23T09:49:01;8.59;85.19
69009;SHT31;56065;52.472;13.380;2024-03-23T09:51:29;8.60;85.32
69009;SHT31;56065;52.472;13.380;2024-03-23T09:53:54;8.50;85.25
69009;SHT31;56065;52.472;13.380;2024-03-23T09:56:21;8.49;85.61
69009;SHT31;56065;52.472;13.380;2024-03-23T09:58:46;8.48;85.34
69009;SHT31;56065;52.472;13.380;2024-03-23T10:01:11;8.42;85.19
69009;SHT31;56065;52.472;13.380;2024-03-23T10:03:44;8.35;85.02
69009;SHT31;56065;52.472;13.380;2024-03-23T10:06:09;8.35;85.57
69009;SHT31;56065;52.472;13.380;2024-03-23T10:08:35;8.39;85.85
69009;SHT31;56065;52.472;13.380;2024-03-23T10:11:13;8.38;84.91
69009;SHT31;56065;52.472;13.380;2024-03-23T10:13:41;8.29;84.71
69009;SHT31;56065;52.472;13.380;2024-03-23T10:16:07;8.25;84.22
69009;SHT31;56065;52.472;13.380;2024-03-23T10:18:37;8.21;84.97
69009;SHT31;56065;52.472;13.380;2024-03-23T10:23:31;8.16;84.85
69009;SHT31;56065;52.472;13.380;2024-03-23T10:26:12;8.18;84.59
69009;SHT31;56065;52.472;13.380;2024-03-23T10:28:59;8.28;85.56
69009;SHT31;56065;52.472;13.380;2024-03-23T10:31:33;8.32;84.85
69009;SHT31;56065;52.472;13.380;2024-03-23T10:33:58;8.29;84.67
69009;SHT31;56065;52.472;13.380;2024-03-23T10:36:25;8.28;85.26
69009;SHT31;56065;52.472;13.380;2024-03-23T10:38:51;8.38;85.06
69009;SHT31;56065;52.472;13.380;2024-03-23T10:41:18;8.36;84.89
69009;SHT31;56065;52.472;13.380;2024-03-23T10:43:45;8.33;85.24
69009;SHT31;56065;52.472;13.380;2024-03-23T10:46:11;8.38;85.66
69009;SHT31;56065;52.472;13.380;2024-03-23T10:48:36;8.42;85.68
69009;SHT31;56065;52.472;13.380;2024-03-23T10:51:02;8.57;85.68
69009;SHT31;56065;52.472;13.380;2024-03-23T10:53:28;8.70;85.83
69009;SHT31;56065;52.472;13.380;2024-03-23T10:55:55;8.79;84.39
69009;SHT31;56065;52.472;13.380;2024-03-23T10:58:42;8.87;84.66
69009;SHT31;56065;52.472;13.380;2024-03-23T11:01:11;8.96;84.20
69009;SHT31;56065;52.472;13.380;2024-03-23T11:03:37;8.93;82.85
69009;SHT31;56065;52.472;13.380;2024-03-23T11:06:04;8.85;82.43
69009;SHT31;56065;52.472;13.380;2024-03-23T11:11:18;8.85;82.85
69009;SHT31;56065;52.472;13.380;2024-03-23T11:13:45;8.97;83.02
69009;SHT31;56065;52.472;13.380;2024-03-23T11:16:17;9.11;83.07
69009;SHT31;56065;52.472;13.380;2024-03-23T11:18:46;9.30;83.95
69009;SHT31;56065;52.472;13.380;2024-03-23T11:24:15;9.55;82.02
69009;SHT31;56065;52.472;13.380;2024-03-23T11:26:41;9.65;80.76
69009;SHT31;56065;52.472;13.380;2024-03-23T11:29:10;9.75;81.43
69009;SHT31;56065;52.472;13.380;2024-03-23T11:31:37;9.85;82.12
69009;SHT31;56065;52.472;13.380;2024-03-23T11:34:06;9.93;81.01
69009;SHT31;56065;52.472;13.380;2024-03-23T11:36:32;9.97;80.26
69009;SHT31;56065;52.472;13.380;2024-03-23T11:38:57;10.04;80.88
69009;SHT31;56065;52.472;13.380;2024-03-23T11:41:23;10.06;81.07
69009;SHT31;56065;52.472;13.380;2024-03-23T11:43:48;10.16;80.35
69009;SHT31;56065;52.472;13.380;2024-03-23T11:46:22;10.13;79.72
69009;SHT31;56065;52.472;13.380;2024-03-23T11:48:50;10.18;79.38
69009;SHT31;56065;52.472;13.380;2024-03-23T11:51:17;10.34;79.41
69009;SHT31;56065;52.472;13.380;2024-03-23T11:53:42;10.37;79.44
69009;SHT31;56065;52.472;13.380;2024-03-23T11:56:08;10.41;78.88
69009;SHT31;56065;52.472;13.380;2024-03-23T11:58:34;10.36;79.21
69009;SHT31;56065;52.472;13.380;2024-03-23T12:01:01;10.37;79.19
69009;SHT31;56065;52.472;13.380;2024-03-23T12:03:28;10.12;79.98
69009;SHT31;56065;52.472;13.380;2024-03-23T12:05:55;10.13;80.58
69009;SHT31;56065;52.472;13.380;2024-03-23T12:08:24;10.06;80.03
69009;SHT31;56065;52.472;13.380;2024-03-23T12:10:51;9.86;80.83
69009;SHT31;56065;52.472;13.380;2024-03-23T12:13:21;9.81;80.72
69009;SHT31;56065;52.472;13.380;2024-03-23T12:15:48;9.65;81.51
69009;SHT31;56065;52.472;13.380;2024-03-23T12:18:14;9.61;82.22
69009;SHT31;56065;52.472;13.380;2024-03-23T12:20:40;9.62;81.51
69009;SHT31;56065;52.472;13.380;2024-03-23T12:23:12;9.78;81.94
69009;SHT31;56065;52.472;13.380;2024-03-23T12:25:40;9.86;82.13
69009;SHT31;56065;52.472;13.380;2024-03-23T12:28:07;10.00;81.72
69009;SHT31;56065;52.472;13.380;2024-03-23T12:30:39;10.12;81.40
69009;SHT31;56065;52.472;13.380;2024-03-23T12:33:04;10.36;81.44
69009;SHT31;56065;52.472;13.380;2024-03-23T12:35:29;10.53;81.15
69009;SHT31;56065;52.472;13.380;2024-03-23T12:37:55;10.75;81.21
69009;SHT31;56065;52.472;13.380;2024-03-23T12:40:20;10.75;81.43
69009;SHT31;56065;52.472;13.380;2024-03-23T12:42:45;10.71;79.89
69009;SHT31;56065;52.472;13.380;2024-03-23T12:45:11;10.60;80.31
69009;SHT31;56065;52.472;13.380;2024-03-23T12:47:36;10.33;79.59
69009;SHT31;56065;52.472;13.380;2024-03-23T12:50:01;10.06;79.49
69009;SHT31;56065;52.472;13.380;2024-03-23T12:52:27;9.72;79.32
69009;SHT31;56065;52.472;13.380;2024-03-23T12:54:56;9.62;80.18
69009;SHT31;56065;52.472;13.380;2024-03-23T12:57:23;9.59;79.38
69009;SHT31;56065;52.472;13.380;2024-03-23T12:59:49;9.66;79.14
69009;SHT31;56065;52.472;13.380;2024-03-23T13:02:25;9.83;79.97
69009;SHT31;56065;52.472;13.380;2024-03-23T13:04:51;9.85;80.26
69009;SHT31;56065;52.472;13.380;2024-03-23T13:07:17;10.07;81.29
69009;SHT31;56065;52.472;13.380;2024-03-23T13:09:43;10.36;81.32
69009;SHT31;56065;52.472;13.380;2024-03-23T13:12:09;10.68;80.98
69009;SHT31;56065;52.472;13.380;2024-03-23T13:14:35;11.02;80.15
69009;SHT31;56065;52.472;13.380;2024-03-23T13:17:00;11.15;80.07
69009;SHT31;56065;52.472;13.380;2024-03-23T13:19:27;11.52;79.97
69009;SHT31;56065;52.472;13.380;2024-03-23T13:21:54;12.10;78.50
69009;SHT31;56065;52.472;13.380;2024-03-23T13:24:23;13.06;78.44
69009;SHT31;56065;52.472;13.380;2024-03-23T13:26:52;13.78;75.34
69009;SHT31;56065;52.472;13.380;2024-03-23T13:29:21;14.57;74.71
69009;SHT31;56065;52.472;13.380;2024-03-23T13:31:51;14.94;71.49
69009;SHT31;56065;52.472;13.380;2024-03-23T13:34:17;14.68;71.01
69009;SHT31;56065;52.472;13.380;2024-03-23T13:36:43;14.53;71.22
69009;SHT31;56065;52.472;13.380;2024-03-23T13:39:09;14.73;71.73
69009;SHT31;56065;52.472;13.380;2024-03-23T13:41:41;14.68;71.21
69009;SHT31;56065;52.472;13.380;2024-03-23T13:44:08;14.26;70.44
69009;SHT31;56065;52.472;13.380;2024-03-23T13:46:34;14.26;71.24
69009;SHT31;56065;52.472;13.380;2024-03-23T13:48:59;14.12;70.79
69009;SHT31;56065;52.472;13.380;2024-03-23T13:51:25;14.12;72.27
69009;SHT31;56065;52.472;13.380;2024-03-23T13:53:53;14.29;71.99
69009;SHT31;56065;52.472;13.380;2024-03-23T13:56:19;14.43;71.02
69009;SHT31;56065;52.472;13.380;2024-03-23T13:58:44;14.22;70.94
69009;SHT31;56065;52.472;13.380;2024-03-23T14:01:12;14.16;71.29
69009;SHT31;56065;52.472;13.380;2024-03-23T14:03:37;13.83;71.68
69009;SHT31;56065;52.472;13.380;2024-03-23T14:06:03;13.69;72.57
69009;SHT31;56065;52.472;13.380;2024-03-23T14:08:29;13.40;73.09
69009;SHT31;56065;52.472;13.380;2024-03-23T14:10:57;13.20;72.59
69009;SHT31;56065;52.472;13.380;2024-03-23T14:13:22;13.06;73.59
69009;SHT31;56065;52.472;13.380;2024-03-23T14:15:52;12.87;74.57
69009;SHT31;56065;52.472;13.380;2024-03-23T14:18:18;12.70;74.02
69009;SHT31;56065;52.472;13.380;2024-03-23T14:20:43;12.59;74.56
69009;SHT31;56065;52.472;13.380;2024-03-23T14:23:09;12.34;74.76
69009;SHT31;56065;52.472;13.380;2024-03-23T14:25:34;12.17;74.96
69009;SHT31;56065;52.472;13.380;2024-03-23T14:27:59;12.01;75.45
69009;SHT31;56065;52.472;13.380;2024-03-23T14:30:25;11.99;76.07
69009;SHT31;56065;52.472;13.380;2024-03-23T14:32:50;11.98;77.99
69009;SHT31;56065;52.472;13.380;2024-03-23T14:35:16;12.05;77.00
69009;SHT31;56065;52.472;13.380;2024-03-23T14:37:41;11.90;76.77
69009;SHT31;56065;52.472;13.380;2024-03-23T14:40:07;11.74;77.69
69009;SHT31;56065;52.472;13.380;2024-03-23T14:42:33;11.56;77.83
69009;SHT31;56065;52.472;13.380;2024-03-23T14:44:58;11.42;77.96
69009;SHT31;56065;52.472;13.380;2024-03-23T14:47:24;11.25;78.69
69009;SHT31;56065;52.472;13.380;2024-03-23T14:49:49;11.01;79.25
69009;SHT31;56065;52.472;13.380;2024-03-23T14:52:19;10.91;79.18
69009;SHT31;56065;52.472;13.380;2024-03-23T14:54:44;10.79;80.39
69009;SHT31;56065;52.472;13.380;2024-03-23T14:57:10;10.65;79.75
69009;SHT31;56065;52.472;13.380;2024-03-23T14:59:35;10.50;80.41
69009;SHT31;56065;52.472;13.380;2024-03-23T15:02:03;10.61;80.80
69009;SHT31;56065;52.472;13.380;2024-03-23T15:04:29;10.85;80.95
69009;SHT31;56065;52.472;13.380;2024-03-23T15:06:54;11.42;82.34
69009;SHT31;56065;52.472;13.380;2024-03-23T15:09:19;12.20;81.40
69009;SHT31;56065;52.472;13.380;2024-03-23T15:11:45;12.49;77.49
69009;SHT31;56065;52.472;13.380;2024-03-23T15:14:10;12.66;76.54
69009;SHT31;56065;52.472;13.380;2024-03-23T15:16:36;12.83;76.27
69009;SHT31;56065;52.472;13.380;2024-03-23T15:19:01;12.80;75.26
69009;SHT31;56065;52.472;13.380;2024-03-23T15:21:27;12.79;75.10
69009;SHT31;56065;52.472;13.380;2024-03-23T15:23:52;12.80;75.83
69009;SHT31;56065;52.472;13.380;2024-03-23T15:26:17;12.86;75.60
69009;SHT31;56065;52.472;13.380;2024-03-23T15:28:42;12.65;75.23
69009;SHT31;56065;52.472;13.380;2024-03-23T15:31:23;12.11;74.60
69009;SHT31;56065;52.472;13.380;2024-03-23T15:33:49;11.85;75.69
69009;SHT31;56065;52.472;13.380;2024-03-23T15:36:14;11.50;76.63
69009;SHT31;56065;52.472;13.380;2024-03-23T15:38:39;11.33;77.07
69009;SHT31;56065;52.472;13.380;2024-03-23T15:41:05;11.39;77.08
69009;SHT31;56065;52.472;13.380;2024-03-23T15:43:31;11.49;77.43
69009;SHT31;56065;52.472;13.380;2024-03-23T15:45:58;11.63;76.73
69009;SHT31;56065;52.472;13.380;2024-03-23T15:48:27;11.75;76.18
69009;SHT31;56065;52.472;13.380;2024-03-23T15:50:58;11.74;75.93
69009;SHT31;56065;52.472;13.380;2024-03-23T15:53:25;11.69;75.43
69009;SHT31;56065;52.472;13.380;2024-03-23T15:55:57;11.66;75.55
69009;SHT31;56065;52.472;13.380;2024-03-23T15:58:24;11.57;74.40
69009;SHT31;56065;52.472;13.380;2024-03-23T16:03:27;11.59;75.56
69009;SHT31;56065;52.472;13.380;2024-03-23T16:06:06;11.60;74.57
69009;SHT31;56065;52.472;13.380;2024-03-23T16:08:34;11.62;74.81
69009;SHT31;56065;52.472;13.380;2024-03-23T16:11:01;11.62;74.00
69009;SHT31;56065;52.472;13.380;2024-03-23T16:13:27;11.62;74.79
69009;SHT31;56065;52.472;13.380;2024-03-23T16:15:55;11.52;74.25
69009;SHT31;56065;52.472;13.380;2024-03-23T16:18:21;11.47;74.80
69009;SHT31;56065;52.472;13.380;2024-03-23T16:20:54;11.39;74.47
69009;SHT31;56065;52.472;13.380;2024-03-23T16:23:19;11.22;75.00